Time;durP1;ratioP1;P1;durP2;ratioP2;P2;SDS_P1;SDS_P2;PMS_P1;PMS_P2;Temp;Humidity;BMP_temperature;BMP_pressure;BME280_temperature;BME280_humidity;BME280_pressure;Samples;Min_cycle;Max_cycle;Signal;HPM_P1;HPM_P2
2023/02/01 00:01:38;;;;;;;10.52;4.65;;;8.20;99.90;;;7.12;100.00;102736.72;5148194;23;20008;-76
2023/02/01 00:03:39;;;;;;;10.52;5.20;;;8.10;99.90;;;7.01;100.00;102738.25;5148287;23;20036;-75
2023/02/01 00:05:40;;;;;;;9.02;4.60;;;8.00;99.90;;;6.98;100.00;102738.41;5147731;23;20448;-75
2023/02/01 00:07:41;;;;;;;10.45;4.80;;;7.90;99.90;;;6.90;100.00;102743.25;5121588;23;20009;-75
2023/02/01 00:09:42;;;;;;;10.55;5.70;;;7.80;99.90;;;6.89;100.00;102745.03;5148393;23;20000;-75
2023/02/01 00:11:43;;;;;;;17.05;4.85;;;7.80;99.90;;;6.84;100.00;102746.19;5097143;23;20008;-76
2023/02/01 00:13:43;;;;;;;11.57;5.05;;;7.80;99.90;;;6.73;100.00;102735.41;5097337;23;20010;-75
2023/02/01 00:15:44;;;;;;;13.50;5.45;;;7.70;99.90;;;6.75;100.00;102730.97;5121783;23;20005;-76
2023/02/01 00:17:45;;;;;;;9.73;4.78;;;7.70;99.90;;;6.81;100.00;102736.69;5121646;23;20008;-75
2023/02/01 00:19:46;;;;;;;14.75;4.82;;;7.70;99.90;;;6.78;100.00;102731.63;5121858;23;20401;-76
2023/02/01 00:21:47;;;;;;;10.68;4.10;;;7.70;99.90;;;6.77;100.00;102726.47;5148062;23;20011;-75
2023/02/01 00:23:48;;;;;;;13.88;5.00;;;7.70;99.90;;;6.80;100.00;102719.28;5121954;23;20006;-75
2023/02/01 00:25:49;;;;;;;13.55;4.57;;;7.80;99.90;;;6.87;100.00;102728.50;5121626;23;20476;-76
2023/02/01 00:27:50;;;;;;;11.73;4.60;;;7.80;99.90;;;6.95;100.00;102728.09;5146315;23;20000;-76
2023/02/01 00:29:51;;;;;;;10.27;4.32;;;7.80;99.90;;;6.96;100.00;102724.56;5148061;23;20011;-76
2023/02/01 00:31:52;;;;;;;9.93;4.40;;;7.90;99.90;;;7.02;100.00;102724.19;5121727;23;20369;-76
2023/02/01 00:33:53;;;;;;;12.32;5.10;;;7.90;99.90;;;7.10;100.00;102728.09;5115919;23;20350;-76
2023/02/01 00:36:03;;;;;;;10.95;4.80;;;8.00;99.90;;;7.04;100.00;102709.22;5123239;23;20072;-76
2023/02/01 00:38:04;;;;;;;9.77;4.18;;;8.00;99.90;;;7.13;100.00;102724.44;5097078;23;20002;-75
2023/02/01 00:40:06;;;;;;;13.60;5.13;;;8.00;99.90;;;7.12;100.00;102712.25;5096653;23;20005;-76
2023/02/01 00:42:07;;;;;;;12.15;4.38;;;8.10;99.90;;;7.10;100.00;102722.00;5123066;23;20001;-76
2023/02/01 00:44:08;;;;;;;9.73;3.60;;;8.10;99.90;;;7.16;100.00;102727.75;5072904;23;20034;-76
2023/02/01 00:46:11;;;;;;;11.20;4.22;;;8.10;99.90;;;7.19;100.00;102731.97;5072106;23;20013;-75
2023/02/01 00:48:12;;;;;;;7.63;3.67;;;8.10;99.90;;;7.22;100.00;102724.78;5123112;23;20377;-75
2023/02/01 00:50:13;;;;;;;9.00;2.80;;;8.10;99.90;;;7.30;100.00;102728.75;5096583;23;20006;-76
2023/02/01 00:52:14;;;;;;;9.02;3.45;;;8.10;99.90;;;7.32;100.00;102722.47;5096687;23;20002;-76
2023/02/01 00:54:15;;;;;;;11.75;4.05;;;8.20;99.90;;;7.37;100.00;102730.97;5123057;23;20040;-76
2023/02/01 00:56:16;;;;;;;11.05;3.42;;;8.30;99.90;;;7.41;100.00;102716.69;5096864;23;20009;-76
2023/02/01 00:58:17;;;;;;;11.02;3.95;;;8.30;99.90;;;7.37;100.00;102711.72;5122943;23;20116;-76
2023/02/01 01:00:18;;;;;;;10.32;3.92;;;8.30;99.90;;;7.43;100.00;102719.25;5097005;23;20013;-76
2023/02/01 01:02:19;;;;;;;12.07;3.92;;;8.30;99.90;;;7.33;100.00;102703.16;5096983;23;20010;-76
2023/02/01 01:04:20;;;;;;;8.20;4.03;;;8.30;99.90;;;7.46;100.00;102727.81;5096833;23;20006;-76
2023/02/01 01:06:25;;;;;;;13.68;4.85;;;8.30;99.90;;;7.43;100.00;102714.84;5120763;23;20013;-75
2023/02/01 01:08:26;;;;;;;9.70;4.22;;;8.40;99.90;;;7.44;100.00;102718.28;5122962;23;20085;-75
2023/02/01 01:10:27;;;;;;;11.93;5.70;;;8.40;99.90;;;7.39;100.00;102707.22;5097102;23;20029;-75
2023/02/01 01:12:28;;;;;;;15.30;4.03;;;8.40;99.90;;;7.41;100.00;102711.44;5123155;23;20001;-76
2023/02/01 01:14:30;;;;;;;11.18;4.05;;;8.30;99.90;;;7.38;100.00;102716.06;5097045;23;20005;-76
2023/02/01 01:16:32;;;;;;;9.20;3.28;;;8.30;99.90;;;7.32;100.00;102717.22;5123175;23;20319;-76
2023/02/01 01:18:34;;;;;;;9.88;3.80;;;8.30;99.90;;;7.26;100.00;102701.00;5097075;23;20076;-76
2023/02/01 01:20:38;;;;;;;9.05;3.50;;;8.20;99.90;;;7.09;100.00;102679.16;5096511;23;20009;-76
2023/02/01 01:22:39;;;;;;;11.25;3.83;;;8.20;99.90;;;7.21;100.00;102706.50;5096910;23;20013;-76
2023/02/01 01:24:40;;;;;;;9.65;4.07;;;8.20;99.90;;;7.21;100.00;102707.34;5096940;23;20009;-76
2023/02/01 01:26:41;;;;;;;11.20;4.07;;;8.10;99.90;;;7.08;100.00;102681.84;5096895;23;20045;-76
2023/02/01 01:28:42;;;;;;;9.40;3.72;;;8.10;99.90;;;7.19;100.00;102705.75;5122816;23;20001;-76
2023/02/01 01:30:43;;;;;;;13.52;3.70;;;8.10;99.90;;;7.18;100.00;102706.66;5123074;23;20005;-76
2023/02/01 01:32:44;;;;;;;13.95;4.63;;;8.10;99.90;;;7.22;100.00;102714.28;5096808;23;20025;-76
2023/02/01 01:34:45;;;;;;;7.00;3.70;;;8.10;99.90;;;7.24;100.00;102717.66;5139152;23;20028;-76
2023/02/01 01:36:46;;;;;;;8.60;4.38;;;8.20;99.90;;;7.26;100.00;102712.31;5147525;23;20015;-76
2023/02/01 01:38:48;;;;;;;8.10;3.95;;;8.20;99.90;;;7.27;100.00;102719.28;5147912;23;20004;-76
2023/02/01 01:40:51;;;;;;;9.10;3.65;;;8.20;99.90;;;7.26;100.00;102712.31;5147707;23;20336;-76
2023/02/01 01:42:54;;;;;;;12.02;4.22;;;8.20;99.90;;;7.24;100.00;102707.16;5121843;23;20060;-75
2023/02/01 01:45:21;;;;;;;8.57;3.47;;;8.20;99.90;;;7.32;100.00;102711.97;5096636;23;20012;-75
2023/02/01 01:47:22;;;;;;;5.68;3.58;;;8.20;99.90;;;7.25;100.00;102713.28;5135174;23;20034;-76
2023/02/01 01:49:26;;;;;;;9.98;3.75;;;8.20;99.90;;;7.28;100.00;102710.47;5123002;23;20469;-76
2023/02/01 01:51:29;;;;;;;7.68;3.30;;;8.20;99.90;;;7.21;100.00;102709.13;5122892;23;20008;-75
2023/02/01 01:54:03;;;;;;;6.78;3.42;;;8.20;99.90;;;7.23;100.00;102712.50;5123046;23;20008;-76
2023/02/01 01:56:04;;;;;;;7.13;2.83;;;8.10;99.90;;;7.11;100.00;102700.06;5143160;23;20087;-76
2023/02/01 01:58:16;;;;;;;10.30;3.40;;;8.10;99.90;;;7.04;100.00;102712.69;5123200;23;20035;-76
2023/02/01 02:00:19;;;;;;;6.25;2.75;;;8.00;99.90;;;6.94;100.00;102710.66;5123558;23;20048;-76
2023/02/01 02:02:20;;;;;;;9.27;3.30;;;7.90;99.90;;;6.79;100.00;102712.34;5123229;23;20024;-76
2023/02/01 02:04:22;;;;;;;5.93;2.92;;;7.80;99.90;;;6.62;100.00;102710.63;5149164;23;20028;-76
2023/02/01 02:06:52;;;;;;;8.98;2.83;;;7.60;99.90;;;6.51;100.00;102720.84;5122723;23;20418;-76
2023/02/01 02:08:53;;;;;;;6.47;3.20;;;7.50;99.90;;;6.29;100.00;102706.34;5122743;23;20005;-76
2023/02/01 02:11:01;;;;;;;5.22;2.80;;;7.30;99.90;;;6.27;100.00;102727.41;5122912;23;20001;-76
2023/02/01 02:13:01;;;;;;;11.55;3.70;;;7.20;99.90;;;6.13;100.00;102716.75;5124052;23;20027;-76
2023/02/01 02:15:04;;;;;;;6.32;3.20;;;7.00;99.90;;;6.05;100.00;102716.31;5097791;23;20005;-76
2023/02/01 02:17:36;;;;;;;9.20;3.80;;;7.00;99.90;;;5.94;100.00;102726.50;5122931;23;20075;-76
2023/02/01 02:20:10;;;;;;;12.18;3.55;;;6.80;99.90;;;5.81;100.00;102726.22;5149246;23;20011;-76
2023/02/01 02:22:29;;;;;;;9.50;3.53;;;6.70;99.90;;;5.72;100.00;102733.69;5148697;23;20012;-76
2023/02/01 02:25:26;;;;;;;14.55;3.60;;;6.60;99.90;;;5.59;100.00;102731.69;5148971;23;20011;-75
2023/02/01 02:28:04;;;;;;;9.48;3.25;;;6.50;99.90;;;5.44;100.00;102716.72;5135232;23;20009;-76
2023/02/01 02:30:41;;;;;;;7.07;3.03;;;6.40;99.90;;;5.29;100.00;102724.47;5148994;23;20028;-76
2023/02/01 02:33:00;;;;;;;9.93;2.75;;;6.30;99.90;;;5.19;100.00;102720.63;5122337;23;20052;-76
2023/02/01 02:35:29;;;;;;;8.05;3.65;;;6.10;99.90;;;5.07;100.00;102734.28;5146847;23;20111;-76
2023/02/01 02:38:07;;;;;;;7.97;3.88;;;6.00;99.90;;;4.98;100.00;102733.78;5149017;23;20318;-76
2023/02/01 02:40:21;;;;;;;8.07;3.42;;;5.90;99.90;;;4.94;100.00;102736.59;5122640;23;20016;-76
2023/02/01 02:48:29;;;;;;;11.73;3.33;;;5.70;99.90;;;4.62;100.00;102726.78;5129555;23;20019;-76
2023/02/01 02:55:38;;;;;;;12.57;3.95;;;5.60;99.90;;;4.61;100.00;102718.06;5126658;23;20015;-76
2023/02/01 03:04:58;;;;;;;10.90;4.32;;;5.70;99.90;;;4.91;100.00;102713.22;5126351;23;20019;-76
2023/02/01 03:07:14;;;;;;;12.60;3.80;;;5.80;99.90;;;4.91;100.00;102713.22;5122515;23;20059;-76
2023/02/01 03:09:33;;;;;;;9.35;3.13;;;5.80;99.90;;;4.93;100.00;102713.97;5122578;23;20005;-76
2023/02/01 03:14:00;;;;;;;16.27;4.22;;;5.90;99.90;;;5.08;100.00;102728.13;5126036;23;20016;-76
2023/02/01 03:16:32;;;;;;;15.23;3.65;;;6.00;99.90;;;5.18;100.00;102745.91;5122543;23;20001;-75
2023/02/01 03:19:22;;;;;;;8.20;2.35;;;6.10;99.90;;;5.17;100.00;102741.59;5148764;23;20080;-76
2023/02/01 03:21:40;;;;;;;10.52;2.92;;;6.10;99.90;;;5.17;100.00;102744.22;5048213;23;20006;-76
2023/02/01 03:23:44;;;;;;;14.88;4.05;;;6.10;99.90;;;5.28;100.00;102736.72;5098676;23;20037;-75
2023/02/01 03:25:48;;;;;;;15.00;2.85;;;6.20;99.90;;;5.32;100.00;102733.03;5148533;23;20032;-76
2023/02/01 03:28:00;;;;;;;14.00;3.17;;;6.30;99.90;;;5.43;100.00;102725.53;5122452;23;20486;-76
2023/02/01 03:30:28;;;;;;;19.80;4.97;;;6.40;99.90;;;5.70;100.00;102738.16;5122499;23;20001;-76
2023/02/01 03:32:57;;;;;;;17.08;4.25;;;6.50;99.90;;;5.73;100.00;102728.41;5098064;23;20012;-76
2023/02/01 03:34:51;;;;;;;13.05;3.42;;;6.70;99.90;;;5.84;100.00;102728.69;5126063;23;20028;-76
2023/02/01 03:37:04;;;;;;;12.10;3.47;;;6.80;99.90;;;5.97;100.00;102744.69;5148391;23;20031;-75
2023/02/01 03:39:30;;;;;;;13.45;3.75;;;6.80;99.90;;;6.00;100.00;102747.16;5097826;23;20040;-76
2023/02/01 03:42:00;;;;;;;13.82;3.38;;;6.90;99.90;;;6.07;100.00;102738.03;5123284;23;20013;-76
2023/02/01 03:44:23;;;;;;;15.40;4.60;;;7.00;99.90;;;6.13;100.00;102738.56;5123849;23;20013;-76
2023/02/01 03:46:48;;;;;;;15.13;3.25;;;7.00;99.90;;;6.19;100.00;102734.78;5122854;23;20009;-76
2023/02/01 03:48:52;;;;;;;13.07;4.15;;;7.10;99.90;;;6.22;100.00;102724.16;5123349;23;20001;-76
2023/02/01 03:50:59;;;;;;;13.90;3.15;;;7.20;99.90;;;6.31;100.00;102728.91;5122143;23;20425;-76
2023/02/01 03:53:14;;;;;;;20.98;3.88;;;7.20;99.90;;;6.35;100.00;102732.22;5122289;23;20349;-76
2023/02/01 03:55:17;;;;;;;;;;;7.30;99.90;;;6.34;100.00;102720.03;5123533;23;20008;-76
2023/02/01 03:57:26;;;;;;;18.13;3.65;;;7.30;99.90;;;6.36;100.00;102723.44;5121932;23;19910;-76
2023/02/01 03:59:27;;;;;;;13.63;3.45;;;7.30;99.90;;;6.34;100.00;102715.66;5122881;23;20418;-76
2023/02/01 04:01:30;;;;;;;16.92;3.03;;;7.40;99.90;;;6.39;100.00;102723.28;5121977;23;20008;-76
2023/02/01 04:03:32;;;;;;;13.70;2.95;;;7.40;99.90;;;6.35;100.00;102713.88;5097206;23;20096;-75
2023/02/01 04:05:34;;;;;;;9.60;3.17;;;7.40;99.90;;;6.42;100.00;102717.88;5121559;23;20076;-75
2023/02/01 04:07:35;;;;;;;9.90;3.25;;;7.40;99.90;;;6.50;100.00;102726.19;5148090;23;20009;-76
2023/02/01 04:09:36;;;;;;;10.98;3.53;;;7.40;99.90;;;6.52;100.00;102724.31;5121638;23;20009;-76
2023/02/01 04:11:37;;;;;;;15.32;4.28;;;7.40;99.90;;;6.54;100.00;102733.78;5148158;23;20364;-76
2023/02/01 04:13:37;;;;;;;11.25;3.08;;;7.50;99.90;;;6.54;100.00;102723.28;5148406;23;20011;-76
2023/02/01 04:15:38;;;;;;;18.42;3.33;;;7.50;99.90;;;6.58;100.00;102735.31;5121775;23;20087;-76
2023/02/01 04:17:39;;;;;;;12.02;2.30;;;7.50;99.90;;;6.58;100.00;102718.75;5148126;23;20008;-76
2023/02/01 04:19:40;;;;;;;14.77;2.97;;;7.50;99.90;;;6.61;100.00;102723.81;5148175;23;20031;-75
2023/02/01 04:21:41;;;;;;;13.35;3.42;;;7.50;99.90;;;6.63;100.00;102735.91;5121611;23;20032;-76
2023/02/01 04:23:42;;;;;;;12.80;3.03;;;7.50;99.90;;;6.61;100.00;102732.53;5121747;23;20005;-76
2023/02/01 04:25:43;;;;;;;17.45;4.20;;;7.60;99.90;;;6.66;100.00;102732.28;5121706;23;20009;-76
2023/02/01 04:27:44;;;;;;;7.85;2.20;;;7.60;99.90;;;6.75;100.00;102730.97;5147989;23;20421;-76
2023/02/01 04:29:45;;;;;;;14.55;2.63;;;7.60;99.90;;;6.74;100.00;102734.50;5148396;23;20015;-76
2023/02/01 04:31:46;;;;;;;9.35;2.28;;;7.60;99.90;;;6.74;100.00;102730.09;5121919;23;20520;-76
2023/02/01 04:33:47;;;;;;;21.17;2.95;;;7.70;99.90;;;6.73;100.00;102730.19;5147824;23;20017;-76
2023/02/01 04:35:48;;;;;;;14.60;3.08;;;7.70;99.90;;;6.77;100.00;102732.56;5121638;23;20080;-76
2023/02/01 04:37:49;;;;;;;10.15;2.38;;;7.70;99.90;;;6.63;100.00;102712.31;5148070;23;20008;-76
2023/02/01 04:39:49;;;;;;;13.02;2.50;;;7.70;99.90;;;6.69;100.00;102729.50;5121088;23;20416;-76
2023/02/01 04:41:50;;;;;;;6.35;3.08;;;7.70;99.90;;;6.77;100.00;102742.19;5121667;23;20345;-76
2023/02/01 04:43:52;;;;;;;15.27;2.75;;;7.70;99.90;;;6.73;100.00;102732.78;5147986;23;20015;-76
2023/02/01 04:45:53;;;;;;;11.52;2.55;;;7.70;99.90;;;6.75;100.00;102736.22;5148128;23;20031;-76
2023/02/01 04:47:54;;;;;;;19.42;4.57;;;7.70;99.90;;;6.78;100.00;102736.88;5147817;23;20008;-76
2023/02/01 04:49:55;;;;;;;13.10;2.00;;;7.70;99.90;;;6.78;100.00;102742.09;5097075;23;20006;-76
2023/02/01 04:51:56;;;;;;;10.50;2.83;;;7.70;99.90;;;6.80;100.00;102747.28;5096581;23;20053;-76
2023/02/01 04:53:57;;;;;;;10.05;2.85;;;7.80;99.90;;;6.80;100.00;102736.78;5121510;23;20385;-76
2023/02/01 04:55:58;;;;;;;13.63;3.65;;;7.70;99.90;;;6.80;100.00;102745.50;5121574;23;20009;-76
2023/02/01 04:57:59;;;;;;;11.57;2.83;;;7.70;99.90;;;6.80;100.00;102744.66;5121742;23;20036;-76
2023/02/01 05:00:00;;;;;;;8.45;2.28;;;7.70;99.90;;;6.76;100.00;102737.88;5121736;23;20016;-76
2023/02/01 05:02:00;;;;;;;12.98;3.33;;;7.70;99.90;;;6.72;100.00;102737.19;5121180;23;20012;-76
2023/02/01 05:04:01;;;;;;;12.63;2.67;;;7.70;99.90;;;6.73;100.00;102738.03;5148115;23;20031;-76
2023/02/01 05:06:04;;;;;;;9.93;3.42;;;7.70;99.90;;;6.75;100.00;102746.69;5147654;23;20029;-76
2023/02/01 05:08:05;;;;;;;11.63;2.53;;;7.70;99.90;;;6.75;100.00;102751.94;5147945;23;20384;-76
2023/02/01 05:10:07;;;;;;;12.65;2.58;;;7.70;99.90;;;6.71;100.00;102755.66;5147858;23;20005;-75
2023/02/01 05:14:29;;;;;;;16.80;2.65;;;7.60;99.90;;;6.63;100.00;102746.41;5125116;23;20377;-76
2023/02/01 05:16:30;;;;;;;14.15;3.15;;;7.60;99.90;;;6.71;100.00;102751.25;5121604;23;20005;-76
2023/02/01 05:18:31;;;;;;;14.20;3.42;;;7.70;99.90;;;6.70;100.00;102760.03;5096769;23;20100;-76
2023/02/01 05:20:31;;;;;;;7.95;2.20;;;7.70;99.90;;;6.78;100.00;102767.50;5096213;23;20386;-76
2023/02/01 05:22:32;;;;;;;12.15;3.13;;;7.70;99.90;;;6.78;100.00;102763.09;5148872;23;20035;-76
2023/02/01 05:24:33;;;;;;;12.80;3.45;;;7.70;99.90;;;6.71;100.00;102756.50;5123217;23;20012;-76
2023/02/01 05:26:35;;;;;;;9.13;2.83;;;7.70;99.90;;;6.74;100.00;102764.19;5098058;23;20025;-76
2023/02/01 05:28:35;;;;;;;14.20;3.10;;;7.70;99.90;;;6.75;100.00;102765.06;5098422;23;20442;-76
2023/02/01 05:30:36;;;;;;;12.23;2.78;;;7.70;99.90;;;6.71;100.00;102760.91;5149487;23;20000;-76
2023/02/01 05:32:37;;;;;;;14.75;4.45;;;7.70;99.90;;;6.77;100.00;102764.03;5123146;23;20527;-76
2023/02/01 05:34:38;;;;;;;15.80;2.75;;;7.70;99.90;;;6.75;100.00;102757.19;5149474;23;20016;-76
2023/02/01 05:36:39;;;;;;;10.80;2.42;;;7.70;99.90;;;6.80;100.00;102760.41;5122786;23;20005;-76
2023/02/01 05:38:41;;;;;;;11.05;2.67;;;7.70;99.90;;;6.68;100.00;102743.56;5149580;23;20009;-76
2023/02/01 05:40:42;;;;;;;14.00;2.50;;;7.70;99.90;;;6.82;100.00;102759.38;5123110;23;20425;-76
2023/02/01 05:42:43;;;;;;;9.90;2.50;;;7.70;99.90;;;6.81;100.00;102754.25;5122952;23;20063;-76
2023/02/01 05:44:43;;;;;;;12.40;2.72;;;7.80;99.90;;;6.83;100.00;102757.63;5149410;23;20005;-76
2023/02/01 05:46:45;;;;;;;14.82;2.90;;;7.80;99.90;;;6.85;100.00;102763.63;5149250;23;20028;-76
2023/02/01 05:48:45;;;;;;;11.27;2.95;;;7.80;99.90;;;6.83;100.00;102765.47;5149376;23;20001;-76
2023/02/01 05:50:46;;;;;;;12.60;2.00;;;7.80;99.90;;;6.81;100.00;102764.72;5098147;23;20010;-76
2023/02/01 05:52:47;;;;;;;12.50;2.47;;;7.80;99.90;;;6.86;100.00;102765.31;5122942;23;20420;-76
2023/02/01 05:54:48;;;;;;;15.43;3.30;;;7.80;99.90;;;6.81;100.00;102762.09;5098153;23;20072;-76
2023/02/01 05:56:49;;;;;;;15.40;4.90;;;7.80;99.90;;;6.82;100.00;102758.53;5122807;23;20036;-76
2023/02/01 05:58:50;;;;;;;18.02;3.53;;;7.80;99.90;;;6.82;100.00;102764.63;5122772;23;20009;-76
2023/02/01 06:00:51;;;;;;;11.38;3.28;;;7.70;99.90;;;6.79;100.00;102748.22;5149362;23;20384;-76
2023/02/01 06:02:52;;;;;;;13.35;3.20;;;7.70;99.90;;;6.78;100.00;102757.84;5123008;23;20005;-76
2023/02/01 06:04:53;;;;;;;12.13;2.70;;;7.70;99.90;;;6.80;100.00;102760.41;5098082;23;20009;-76
2023/02/01 06:06:54;;;;;;;19.50;3.45;;;7.70;99.90;;;6.79;100.00;102766.56;5122506;23;20009;-76
2023/02/01 06:08:54;;;;;;;13.00;2.42;;;7.80;99.90;;;6.79;100.00;102769.19;5122871;23;20012;-76
2023/02/01 06:11:04;;;;;;;12.52;2.83;;;7.80;99.90;;;6.76;100.00;102758.88;5123066;23;20001;-76
2023/02/01 06:13:05;;;;;;;10.93;2.95;;;7.70;99.90;;;6.81;100.00;102772.59;5123052;23;20001;-76
2023/02/01 06:15:07;;;;;;;15.52;2.83;;;7.70;99.90;;;6.78;100.00;102763.09;5149327;23;20040;-76
2023/02/01 06:17:08;;;;;;;13.73;3.50;;;7.70;99.90;;;6.80;100.00;102773.50;5097974;23;20006;-76
2023/02/01 06:19:09;;;;;;;14.88;3.50;;;7.70;99.90;;;6.82;100.00;102783.00;5098031;23;20010;-76
2023/02/01 06:21:10;;;;;;;14.50;3.35;;;7.80;99.90;;;6.78;100.00;102783.25;5122172;23;20008;-76
2023/02/01 06:23:11;;;;;;;15.35;2.85;;;7.70;99.90;;;6.82;100.00;102793.47;5122902;23;20012;-76
2023/02/01 06:25:12;;;;;;;15.25;3.58;;;7.80;99.90;;;6.83;100.00;102800.44;5148954;23;20008;-75
2023/02/01 06:27:13;;;;;;;15.88;3.58;;;7.80;99.90;;;6.84;100.00;102801.28;5148954;23;20009;-76
2023/02/01 06:29:14;;;;;;;15.55;3.92;;;7.70;99.90;;;6.80;100.00;102794.50;5122613;23;20015;-76
2023/02/01 06:31:15;;;;;;;11.38;3.47;;;7.70;99.90;;;6.86;100.00;102807.28;5122521;23;20001;-76
2023/02/01 06:33:16;;;;;;;10.90;2.38;;;7.80;99.90;;;6.81;100.00;102793.59;5148946;23;20071;-76
2023/02/01 06:35:17;;;;;;;14.68;2.70;;;7.80;99.90;;;6.85;100.00;102800.34;5099487;23;20450;-76
2023/02/01 06:37:19;;;;;;;17.20;3.25;;;7.80;99.90;;;6.82;100.00;102790.84;5098145;23;20057;-76
2023/02/01 06:39:20;;;;;;;17.20;2.78;;;7.80;99.90;;;6.87;100.00;102791.44;5123830;23;20005;-76
2023/02/01 06:41:21;;;;;;;17.08;4.70;;;7.80;99.90;;;6.94;100.00;102800.69;5097989;23;20098;-76
2023/02/01 06:43:27;;;;;;;11.70;3.72;;;7.80;99.90;;;6.89;100.00;102796.63;5123978;23;20425;-76
2023/02/01 06:45:28;;;;;;;14.52;3.28;;;7.80;99.90;;;6.87;100.00;102798.50;5073300;23;20013;-76
2023/02/01 06:47:29;;;;;;;18.00;3.22;;;7.80;99.90;;;6.89;100.00;102800.09;5073151;23;20017;-76
2023/02/01 06:49:30;;;;;;;14.43;4.65;;;7.80;99.90;;;6.85;100.00;102790.69;5097610;23;20068;-76
2023/02/01 06:51:31;;;;;;;9.52;2.30;;;7.80;99.90;;;6.89;100.00;102799.25;5097482;23;20089;-76
2023/02/01 06:53:32;;;;;;;15.68;2.78;;;7.90;99.90;;;6.91;100.00;102803.47;5097855;23;20006;-76
2023/02/01 06:55:33;;;;;;;15.85;2.92;;;7.80;99.90;;;6.87;100.00;102798.50;5097822;23;20068;-76
2023/02/01 06:57:35;;;;;;;14.15;3.13;;;7.80;99.90;;;6.83;100.00;102796.97;5124152;23;20008;-77
2023/02/01 06:59:36;;;;;;;18.17;4.05;;;7.80;99.90;;;6.87;100.00;102790.63;5123815;23;20448;-76
2023/02/01 07:01:37;;;;;;;18.60;4.40;;;7.80;99.90;;;6.91;100.00;102800.00;5097816;23;20016;-76
2023/02/01 07:03:38;;;;;;;25.55;6.43;;;7.90;99.90;;;6.88;100.00;102805.41;5097758;23;20466;-76
2023/02/01 07:05:39;;;;;;;15.32;3.83;;;7.90;99.90;;;6.94;100.00;102812.97;5097756;23;20005;-76
2023/02/01 07:07:40;;;;;;;16.05;4.57;;;7.90;99.90;;;6.94;100.00;102815.59;5091593;23;20016;-76
2023/02/01 07:09:41;;;;;;;18.77;3.85;;;7.90;99.90;;;6.93;100.00;102819.16;5123946;23;20072;-76
2023/02/01 07:11:43;;;;;;;10.88;2.83;;;7.90;99.90;;;6.91;100.00;102815.75;5097623;23;20001;-76
2023/02/01 07:13:45;;;;;;;19.27;4.50;;;7.90;99.90;;;6.88;100.00;102814.16;5098150;23;20080;-76
2023/02/01 07:15:47;;;;;;;13.48;3.78;;;7.90;99.90;;;6.92;100.00;102818.31;5097526;23;20012;-76
2023/02/01 07:17:48;;;;;;;18.40;4.03;;;7.90;99.90;;;6.95;100.00;102819.91;5097552;23;20043;-76
2023/02/01 07:19:49;;;;;;;18.30;3.40;;;7.90;99.90;;;6.92;100.00;102817.47;5123462;23;20064;-76
2023/02/01 07:21:50;;;;;;;13.60;3.67;;;7.90;99.90;;;6.91;100.00;102813.13;5097167;23;20101;-76
2023/02/01 07:23:51;;;;;;;14.65;4.07;;;7.90;99.90;;;6.89;100.00;102815.84;5073011;23;20339;-76
2023/02/01 07:25:57;;;;;;;23.10;4.50;;;7.90;99.90;;;6.96;100.00;102829.50;5097070;23;20013;-76
2023/02/01 07:27:58;;;;;;;21.42;5.22;;;7.90;99.90;;;6.93;100.00;102819.16;5097221;23;20006;-76
2023/02/01 07:30:01;;;;;;;23.15;5.50;;;7.90;99.90;;;6.94;100.00;102824.31;5097370;23;20012;-76
2023/02/01 07:32:02;;;;;;;16.40;4.47;;;7.90;99.90;;;6.97;100.00;102823.28;5097423;23;20458;-76
2023/02/01 07:34:03;;;;;;;21.52;4.03;;;7.90;99.90;;;6.97;100.00;102828.53;5097169;23;20013;-76
2023/02/01 07:36:07;;;;;;;18.60;4.07;;;7.90;99.90;;;6.96;100.00;102830.31;5097302;23;20008;-76
2023/02/01 07:38:08;;;;;;;18.45;5.03;;;7.90;99.90;;;6.93;100.00;102819.16;5122074;23;20012;-76
2023/02/01 07:40:10;;;;;;;18.00;5.22;;;7.90;99.90;;;6.91;100.00;102816.59;5123548;23;20433;-76
2023/02/01 07:42:11;;;;;;;16.75;4.60;;;7.90;99.90;;;6.94;100.00;102820.84;5123547;23;20031;-76
2023/02/01 07:44:11;;;;;;;15.00;3.85;;;7.90;99.90;;;6.95;100.00;102814.66;5097459;23;20049;-76
2023/02/01 07:46:15;;;;;;;13.20;4.30;;;7.90;99.90;;;7.00;100.00;102820.50;5097207;23;20040;-76
2023/02/01 07:48:15;;;;;;;19.73;4.53;;;7.90;99.90;;;6.96;100.00;102816.38;5097594;23;20080;-76
2023/02/01 07:50:16;;;;;;;13.23;3.95;;;8.00;99.90;;;6.99;100.00;102810.97;5097277;23;20012;-76
2023/02/01 07:52:17;;;;;;;16.15;3.65;;;7.90;99.90;;;6.99;100.00;102811.78;5123441;23;20024;-76
2023/02/01 07:54:18;;;;;;;15.50;3.80;;;8.00;99.90;;;6.95;100.00;102804.19;5097354;23;20080;-76
2023/02/01 07:56:22;;;;;;;12.48;3.85;;;8.00;99.90;;;7.00;100.00;102821.38;5097179;23;20009;-76
2023/02/01 07:58:24;;;;;;;11.85;3.00;;;7.90;99.90;;;7.01;100.00;102811.72;5122915;23;20036;-76
2023/02/01 08:02:45;;;;;;;15.40;2.92;;;8.00;99.90;;;7.08;100.00;102820.94;5100743;23;20085;-76
2023/02/01 08:04:46;;;;;;;17.13;3.80;;;8.00;99.90;;;7.07;100.00;102821.88;5118809;23;20376;-76
2023/02/01 08:06:47;;;;;;;12.50;3.75;;;8.00;99.90;;;7.09;100.00;102815.63;5120093;23;20044;-77
2023/02/01 08:08:49;;;;;;;15.30;3.55;;;8.10;99.90;;;7.13;100.00;102817.16;5120395;23;20012;-77
2023/02/01 08:10:50;;;;;;;15.32;4.18;;;8.00;99.90;;;7.11;100.00;102812.91;5096164;23;20001;-78
2023/02/01 08:12:51;;;;;;;16.58;5.03;;;8.10;99.90;;;7.09;100.00;102809.50;5096307;23;20002;-77
2023/02/01 08:14:56;;;;;;;23.33;8.07;;;8.10;99.90;;;7.11;100.00;102811.13;5072153;23;20009;-77
2023/02/01 08:16:57;;;;;;;25.95;8.38;;;8.10;99.90;;;7.08;100.00;102811.28;5096926;23;20072;-77
2023/02/01 08:18:57;;;;;;;19.80;6.18;;;8.00;99.90;;;6.90;100.00;102777.34;5118701;23;20005;-77
2023/02/01 08:21:08;;;;;;;18.65;4.72;;;8.00;99.90;;;7.01;100.00;102795.97;5120476;23;20005;-76
2023/02/01 08:23:09;;;;;;;18.80;4.22;;;8.00;99.90;;;7.01;100.00;102790.72;5096357;23;20065;-77
2023/02/01 08:25:11;;;;;;;16.92;3.83;;;8.00;99.90;;;6.99;100.00;102780.28;5095896;23;20075;-76
2023/02/01 08:27:12;;;;;;;12.95;4.18;;;8.00;99.90;;;7.05;100.00;102779.13;5122124;23;20005;-76
2023/02/01 08:29:13;;;;;;;27.88;7.18;;;8.10;99.90;;;7.24;100.00;102804.28;5122488;23;20001;-76
2023/02/01 08:31:18;;;;;;;30.90;9.10;;;8.10;99.90;;;7.15;100.00;102791.66;5122186;23;20001;-76
2023/02/01 08:33:19;;;;;;;32.25;11.07;;;8.20;99.90;;;7.31;100.00;102810.06;5096271;23;20001;-77
2023/02/01 08:35:19;;;;;;;34.42;9.90;;;8.20;99.90;;;7.25;100.00;102789.38;5095980;23;20014;-77
2023/02/01 08:37:22;;;;;;;31.15;10.40;;;8.30;99.90;;;7.36;100.00;102794.03;5119131;23;20005;-77
2023/02/01 08:39:23;;;;;;;37.83;12.85;;;8.30;99.90;;;7.40;100.00;102791.16;5120463;23;20100;-77
2023/02/01 08:41:28;;;;;;;31.30;13.68;;;8.40;99.90;;;7.41;100.00;102779.72;5095503;23;20006;-76
2023/02/01 08:43:29;;;;;;;31.65;12.63;;;8.40;99.90;;;7.44;100.00;102773.44;5096523;23;20005;-77
2023/02/01 08:45:30;;;;;;;25.20;7.80;;;8.50;99.90;;;7.62;100.00;102809.16;5096145;23;20010;-77
2023/02/01 08:47:31;;;;;;;17.55;7.18;;;8.50;99.90;;;7.54;100.00;102793.84;5096241;23;20473;-77
2023/02/01 08:49:32;;;;;;;17.38;6.75;;;8.50;99.90;;;7.70;100.00;102820.97;5096141;23;20005;-78
2023/02/01 08:51:33;;;;;;;12.65;4.63;;;8.60;99.90;;;7.77;100.00;102819.66;5122181;23;20128;-78
2023/02/01 08:53:36;;;;;;;16.75;4.93;;;8.60;99.90;;;7.82;100.00;102830.75;5122455;23;20001;-78
2023/02/01 08:55:37;;;;;;;18.25;4.05;;;8.70;99.90;;;7.77;100.00;102819.66;5096735;23;20009;-78
2023/02/01 08:57:38;;;;;;;13.55;3.47;;;8.70;99.90;;;7.84;100.00;102825.41;5096043;23;20060;-78
2023/02/01 08:59:39;;;;;;;17.30;4.80;;;8.70;99.90;;;7.92;100.00;102817.09;5096316;23;20009;-78
2023/02/01 09:01:40;;;;;;;14.63;3.72;;;8.90;99.90;;;7.97;100.00;102820.31;5096603;23;20016;-78
2023/02/01 09:03:41;;;;;;;19.48;4.03;;;8.90;99.90;;;8.02;100.00;102827.00;5096607;23;20006;-78
2023/02/01 09:05:42;;;;;;;15.73;4.20;;;8.90;99.90;;;8.11;100.00;102838.75;5096075;23;20036;-78